sensor_id;sensor_type;location;lat;lon;timestamp;temperature;humidity
2639;DHT22;1329;51.384;7.122;2023-03-21T00:02:24;12.00;99.90
2639;DHT22;1329;51.384;7.122;2023-03-21T00:04:53;12.00;99.90
2639;DHT22;1329;51.384;7.122;2023-03-21T00:07:21;12.00;99.90
2639;DHT22;1329;51.384;7.122;2023-03-21T00:09:49;12.00;99.90
2639;DHT22;1329;51.384;7.122;2023-03-21T00:12:23;12.00;99.90
2639;DHT22;1329;51.384;7.122;2023-03-21T00:14:52;12.00;99.90
2639;DHT22;1329;51.384;7.122;2023-03-21T00:17:21;12.00;99.90
2639;DHT22;1329;51.384;7.122;2023-03-21T00:19:58;12.00;99.90
2639;DHT22;1329;51.384;7.122;2023-03-21T00:22:30;12.00;99.90
2639;DHT22;1329;51.384;7.122;2023-03-21T00:25:01;12.00;99.90
2639;DHT22;1329;51.384;7.122;2023-03-21T00:27:28;12.00;99.90
2639;DHT22;1329;51.384;7.122;2023-03-21T00:29:58;12.00;99.90
2639;DHT22;1329;51.384;7.122;2023-03-21T00:32:26;12.00;99.90
2639;DHT22;1329;51.384;7.122;2023-03-21T00:34:54;12.00;99.90
2639;DHT22;1329;51.384;7.122;2023-03-21T00:37:25;12.00;99.90
2639;DHT22;1329;51.384;7.122;2023-03-21T00:39:53;12.00;99.90
2639;DHT22;1329;51.384;7.122;2023-03-21T00:42:23;12.00;99.90
2639;DHT22;1329;51.384;7.122;2023-03-21T00:44:51;12.00;99.90
2639;DHT22;1329;51.384;7.122;2023-03-21T00:47:19;12.00;99.90
2639;DHT22;1329;51.384;7.122;2023-03-21T00:49:48;12.00;99.90
2639;DHT22;1329;51.384;7.122;2023-03-21T00:52:16;12.00;99.90
2639;DHT22;1329;51.384;7.122;2023-03-21T00:54:46;12.00;99.90
2639;DHT22;1329;51.384;7.122;2023-03-21T00:57:30;12.00;99.90
2639;DHT22;1329;51.384;7.122;2023-03-21T01:00:00;12.00;99.90
2639;DHT22;1329;51.384;7.122;2023-03-21T01:02:35;12.00;99.90
2639;DHT22;1329;51.384;7.122;2023-03-21T01:05:09;12.00;99.90
2639;DHT22;1329;51.384;7.122;2023-03-21T01:07:38;12.00;99.90
2639;DHT22;1329;51.384;7.122;2023-03-21T01:10:10;12.00;99.90
2639;DHT22;1329;51.384;7.122;2023-03-21T01:12:45;12.00;99.90
2639;DHT22;1329;51.384;7.122;2023-03-21T01:15:17;12.00;99.90
2639;DHT22;1329;51.384;7.122;2023-03-21T01:17:47;12.00;99.90
2639;DHT22;1329;51.384;7.122;2023-03-21T01:20:16;12.00;99.90
2639;DHT22;1329;51.384;7.122;2023-03-21T01:22:44;12.00;99.90
2639;DHT22;1329;51.384;7.122;2023-03-21T01:25:13;12.00;99.90
2639;DHT22;1329;51.384;7.122;2023-03-21T01:27:45;12.00;99.90
2639;DHT22;1329;51.384;7.122;2023-03-21T01:30:17;12.00;99.90
2639;DHT22;1329;51.384;7.122;2023-03-21T01:32:46;12.00;99.90
2639;DHT22;1329;51.384;7.122;2023-03-21T01:35:18;12.00;99.90
2639;DHT22;1329;51.384;7.122;2023-03-21T01:37:48;12.00;99.90
2639;DHT22;1329;51.384;7.122;2023-03-21T01:40:19;12.00;99.90
2639;DHT22;1329;51.384;7.122;2023-03-21T01:42:54;12.00;99.90
2639;DHT22;1329;51.384;7.122;2023-03-21T01:48:54;12.10;99.90
2639;DHT22;1329;51.384;7.122;2023-03-21T01:51:31;12.00;99.90
2639;DHT22;1329;51.384;7.122;2023-03-21T01:54:03;12.00;99.90
2639;DHT22;1329;51.384;7.122;2023-03-21T01:56:35;12.00;99.90
2639;DHT22;1329;51.384;7.122;2023-03-21T01:59:09;12.00;99.90
2639;DHT22;1329;51.384;7.122;2023-03-21T02:01:45;12.00;99.90
2639;DHT22;1329;51.384;7.122;2023-03-21T02:04:12;12.00;99.90
2639;DHT22;1329;51.384;7.122;2023-03-21T02:06:45;11.90;99.90
2639;DHT22;1329;51.384;7.122;2023-03-21T02:09:22;11.90;99.90
2639;DHT22;1329;51.384;7.122;2023-03-21T02:11:58;11.90;99.90
2639;DHT22;1329;51.384;7.122;2023-03-21T02:14:32;11.90;99.90
2639;DHT22;1329;51.384;7.122;2023-03-21T02:17:11;11.90;99.90
2639;DHT22;1329;51.384;7.122;2023-03-21T02:20:16;11.90;99.90
2639;DHT22;1329;51.384;7.122;2023-03-21T02:23:46;11.90;99.90
2639;DHT22;1329;51.384;7.122;2023-03-21T02:26:49;11.90;99.90
2639;DHT22;1329;51.384;7.122;2023-03-21T02:33:02;11.90;99.90
2639;DHT22;1329;51.384;7.122;2023-03-21T02:35:59;11.90;99.90
2639;DHT22;1329;51.384;7.122;2023-03-21T02:38:52;11.90;99.90
2639;DHT22;1329;51.384;7.122;2023-03-21T02:41:32;11.90;99.90
2639;DHT22;1329;51.384;7.122;2023-03-21T02:44:17;11.90;99.90
2639;DHT22;1329;51.384;7.122;2023-03-21T02:47:00;11.90;99.90
2639;DHT22;1329;51.384;7.122;2023-03-21T02:49:36;11.90;99.90
2639;DHT22;1329;51.384;7.122;2023-03-21T02:52:19;11.90;99.90
2639;DHT22;1329;51.384;7.122;2023-03-21T02:55:08;11.90;99.90
2639;DHT22;1329;51.384;7.122;2023-03-21T02:57:44;11.90;99.90
2639;DHT22;1329;51.384;7.122;2023-03-21T03:00:22;11.80;99.90
2639;DHT22;1329;51.384;7.122;2023-03-21T03:03:00;11.80;99.90
2639;DHT22;1329;51.384;7.122;2023-03-21T03:05:39;11.80;99.90
2639;DHT22;1329;51.384;7.122;2023-03-21T03:08:45;11.80;99.90
2639;DHT22;1329;51.384;7.122;2023-03-21T03:11:37;11.80;99.90
2639;DHT22;1329;51.384;7.122;2023-03-21T03:14:32;11.80;99.90
2639;DHT22;1329;51.384;7.122;2023-03-21T03:17:31;11.80;99.90
2639;DHT22;1329;51.384;7.122;2023-03-21T03:20:36;11.80;99.90
2639;DHT22;1329;51.384;7.122;2023-03-21T03:23:26;11.80;99.90
2639;DHT22;1329;51.384;7.122;2023-03-21T03:26:08;11.80;99.90
2639;DHT22;1329;51.384;7.122;2023-03-21T03:29:03;11.80;99.90
2639;DHT22;1329;51.384;7.122;2023-03-21T03:31:45;11.80;99.90
2639;DHT22;1329;51.384;7.122;2023-03-21T03:34:21;11.80;99.90
2639;DHT22;1329;51.384;7.122;2023-03-21T03:37:04;11.70;99.90
2639;DHT22;1329;51.384;7.122;2023-03-21T03:39:50;11.70;99.90
2639;DHT22;1329;51.384;7.122;2023-03-21T03:42:29;11.80;99.90
2639;DHT22;1329;51.384;7.122;2023-03-21T03:45:15;11.80;99.90
2639;DHT22;1329;51.384;7.122;2023-03-21T03:48:05;11.80;99.90
2639;DHT22;1329;51.384;7.122;2023-03-21T03:50:55;11.70;99.90
2639;DHT22;1329;51.384;7.122;2023-03-21T03:53:50;11.70;99.90
2639;DHT22;1329;51.384;7.122;2023-03-21T03:56:35;11.70;99.90
2639;DHT22;1329;51.384;7.122;2023-03-21T03:59:20;11.70;99.90
2639;DHT22;1329;51.384;7.122;2023-03-21T04:01:55;11.70;99.90
2639;DHT22;1329;51.384;7.122;2023-03-21T04:04:53;11.60;99.90
2639;DHT22;1329;51.384;7.122;2023-03-21T04:07:36;11.70;99.90
2639;DHT22;1329;51.384;7.122;2023-03-21T04:10:16;11.70;99.90
2639;DHT22;1329;51.384;7.122;2023-03-21T04:13:06;11.70;99.90
2639;DHT22;1329;51.384;7.122;2023-03-21T04:15:45;11.60;99.90
2639;DHT22;1329;51.384;7.122;2023-03-21T04:18:25;11.60;99.90
2639;DHT22;1329;51.384;7.122;2023-03-21T04:21:06;11.60;99.90
2639;DHT22;1329;51.384;7.122;2023-03-21T04:23:42;11.60;99.90
2639;DHT22;1329;51.384;7.122;2023-03-21T04:26:24;11.50;99.90
2639;DHT22;1329;51.384;7.122;2023-03-21T04:29:15;11.50;99.90
2639;DHT22;1329;51.384;7.122;2023-03-21T04:32:10;11.50;99.90
2639;DHT22;1329;51.384;7.122;2023-03-21T04:35:11;11.50;99.90
2639;DHT22;1329;51.384;7.122;2023-03-21T04:37:46;11.50;99.90
2639;DHT22;1329;51.384;7.122;2023-03-21T04:40:37;11.40;99.90
2639;DHT22;1329;51.384;7.122;2023-03-21T04:43:19;11.50;99.90
2639;DHT22;1329;51.384;7.122;2023-03-21T04:46:00;11.50;99.90
2639;DHT22;1329;51.384;7.122;2023-03-21T04:48:40;11.50;99.90
2639;DHT22;1329;51.384;7.122;2023-03-21T04:51:36;11.50;99.90
2639;DHT22;1329;51.384;7.122;2023-03-21T04:54:25;11.50;99.90
2639;DHT22;1329;51.384;7.122;2023-03-21T04:57:14;11.50;99.90
2639;DHT22;1329;51.384;7.122;2023-03-21T04:59:53;11.50;99.90
2639;DHT22;1329;51.384;7.122;2023-03-21T05:02:41;11.50;99.90
2639;DHT22;1329;51.384;7.122;2023-03-21T05:05:26;11.50;99.90
2639;DHT22;1329;51.384;7.122;2023-03-21T05:08:16;11.50;99.90
2639;DHT22;1329;51.384;7.122;2023-03-21T05:10:51;11.60;99.90
2639;DHT22;1329;51.384;7.122;2023-03-21T05:13:24;11.60;99.90
2639;DHT22;1329;51.384;7.122;2023-03-21T05:15:59;11.60;99.90
2639;DHT22;1329;51.384;7.122;2023-03-21T05:18:36;11.60;99.90
2639;DHT22;1329;51.384;7.122;2023-03-21T05:21:15;11.60;99.90
2639;DHT22;1329;51.384;7.122;2023-03-21T05:24:07;11.60;99.90
2639;DHT22;1329;51.384;7.122;2023-03-21T05:27:01;11.60;99.90
2639;DHT22;1329;51.384;7.122;2023-03-21T05:30:05;11.60;99.90
2639;DHT22;1329;51.384;7.122;2023-03-21T05:33:00;11.60;99.90
2639;DHT22;1329;51.384;7.122;2023-03-21T05:35:43;11.60;99.90
2639;DHT22;1329;51.384;7.122;2023-03-21T05:38:58;11.60;99.90
2639;DHT22;1329;51.384;7.122;2023-03-21T05:41:33;11.70;99.90
2639;DHT22;1329;51.384;7.122;2023-03-21T05:44:15;11.70;99.90
2639;DHT22;1329;51.384;7.122;2023-03-21T05:46:59;11.70;99.90
2639;DHT22;1329;51.384;7.122;2023-03-21T05:50:07;11.70;99.90
2639;DHT22;1329;51.384;7.122;2023-03-21T05:52:52;11.70;99.90
2639;DHT22;1329;51.384;7.122;2023-03-21T05:55:27;11.70;99.90
2639;DHT22;1329;51.384;7.122;2023-03-21T05:58:05;11.80;99.90
2639;DHT22;1329;51.384;7.122;2023-03-21T06:00:39;11.80;99.90
2639;DHT22;1329;51.384;7.122;2023-03-21T06:03:12;11.80;99.90
2639;DHT22;1329;51.384;7.122;2023-03-21T06:05:45;11.80;99.90
2639;DHT22;1329;51.384;7.122;2023-03-21T06:11:33;11.80;99.90
2639;DHT22;1329;51.384;7.122;2023-03-21T06:14:22;11.80;99.90
2639;DHT22;1329;51.384;7.122;2023-03-21T06:17:01;11.80;99.90
2639;DHT22;1329;51.384;7.122;2023-03-21T06:19:49;11.90;99.90
2639;DHT22;1329;51.384;7.122;2023-03-21T06:22:29;11.80;99.90
2639;DHT22;1329;51.384;7.122;2023-03-21T06:25:08;11.80;99.90
2639;DHT22;1329;51.384;7.122;2023-03-21T06:35:09;11.80;99.90
2639;DHT22;1329;51.384;7.122;2023-03-21T06:37:57;11.80;99.90
2639;DHT22;1329;51.384;7.122;2023-03-21T06:40:49;11.80;99.90
2639;DHT22;1329;51.384;7.122;2023-03-21T06:43:27;11.80;99.90
2639;DHT22;1329;51.384;7.122;2023-03-21T06:46:17;11.80;99.90
2639;DHT22;1329;51.384;7.122;2023-03-21T06:49:03;11.70;99.90
2639;DHT22;1329;51.384;7.122;2023-03-21T06:55:02;11.70;99.90
2639;DHT22;1329;51.384;7.122;2023-03-21T06:57:51;11.70;99.90
2639;DHT22;1329;51.384;7.122;2023-03-21T07:00:23;11.70;99.90
2639;DHT22;1329;51.384;7.122;2023-03-21T07:02:55;11.70;99.90
2639;DHT22;1329;51.384;7.122;2023-03-21T07:05:29;11.70;99.90
2639;DHT22;1329;51.384;7.122;2023-03-21T07:07:58;11.70;99.90
2639;DHT22;1329;51.384;7.122;2023-03-21T07:10:28;11.70;99.90
2639;DHT22;1329;51.384;7.122;2023-03-21T07:12:58;11.70;99.90
2639;DHT22;1329;51.384;7.122;2023-03-21T07:15:25;11.70;99.90
2639;DHT22;1329;51.384;7.122;2023-03-21T07:17:52;11.80;99.90
2639;DHT22;1329;51.384;7.122;2023-03-21T07:20:21;11.70;99.90
2639;DHT22;1329;51.384;7.122;2023-03-21T07:22:54;11.70;99.90
2639;DHT22;1329;51.384;7.122;2023-03-21T07:25:27;11.70;99.90
2639;DHT22;1329;51.384;7.122;2023-03-21T07:27:56;11.70;99.90
2639;DHT22;1329;51.384;7.122;2023-03-21T07:30:24;11.80;99.90
2639;DHT22;1329;51.384;7.122;2023-03-21T07:32:53;11.80;99.90
2639;DHT22;1329;51.384;7.122;2023-03-21T07:35:22;11.80;99.90
2639;DHT22;1329;51.384;7.122;2023-03-21T07:37:54;11.80;99.90
2639;DHT22;1329;51.384;7.122;2023-03-21T07:40:30;11.80;99.90
2639;DHT22;1329;51.384;7.122;2023-03-21T07:42:58;11.90;99.90
2639;DHT22;1329;51.384;7.122;2023-03-21T07:45:26;11.90;99.90
2639;DHT22;1329;51.384;7.122;2023-03-21T07:47:59;11.90;99.90
2639;DHT22;1329;51.384;7.122;2023-03-21T07:50:30;12.00;99.90
2639;DHT22;1329;51.384;7.122;2023-03-21T07:52:58;12.00;99.90
2639;DHT22;1329;51.384;7.122;2023-03-21T07:55:32;12.00;99.90
2639;DHT22;1329;51.384;7.122;2023-03-21T07:58:31;12.10;99.90
2639;DHT22;1329;51.384;7.122;2023-03-21T08:00:59;12.10;99.90
2639;DHT22;1329;51.384;7.122;2023-03-21T08:03:28;12.20;99.90
2639;DHT22;1329;51.384;7.122;2023-03-21T08:05:58;12.20;99.90
2639;DHT22;1329;51.384;7.122;2023-03-21T08:08:26;12.20;99.90
2639;DHT22;1329;51.384;7.122;2023-03-21T08:10:55;12.20;99.90
2639;DHT22;1329;51.384;7.122;2023-03-21T08:13:26;12.20;99.90
2639;DHT22;1329;51.384;7.122;2023-03-21T08:15:57;12.20;99.90
2639;DHT22;1329;51.384;7.122;2023-03-21T08:18:34;12.20;99.90
2639;DHT22;1329;51.384;7.122;2023-03-21T08:21:03;12.30;99.90
2639;DHT22;1329;51.384;7.122;2023-03-21T08:23:41;12.20;99.90
2639;DHT22;1329;51.384;7.122;2023-03-21T08:26:14;12.30;99.90
2639;DHT22;1329;51.384;7.122;2023-03-21T08:28:55;12.40;99.90
2639;DHT22;1329;51.384;7.122;2023-03-21T08:31:29;12.40;99.90
2639;DHT22;1329;51.384;7.122;2023-03-21T08:33:57;12.50;99.90
2639;DHT22;1329;51.384;7.122;2023-03-21T08:36:25;12.50;99.90
2639;DHT22;1329;51.384;7.122;2023-03-21T08:39:00;12.60;99.90
2639;DHT22;1329;51.384;7.122;2023-03-21T08:41:32;12.60;99.90
2639;DHT22;1329;51.384;7.122;2023-03-21T08:43:59;12.60;99.90
2639;DHT22;1329;51.384;7.122;2023-03-21T08:46:30;12.60;99.90
2639;DHT22;1329;51.384;7.122;2023-03-21T08:48:58;12.60;99.90
2639;DHT22;1329;51.384;7.122;2023-03-21T08:51:26;12.60;99.90
2639;DHT22;1329;51.384;7.122;2023-03-21T08:53:53;12.60;99.90
2639;DHT22;1329;51.384;7.122;2023-03-21T08:56:21;12.50;99.90
2639;DHT22;1329;51.384;7.122;2023-03-21T08:58:53;12.60;99.90
2639;DHT22;1329;51.384;7.122;2023-03-21T09:01:27;12.50;99.90
2639;DHT22;1329;51.384;7.122;2023-03-21T09:04:00;12.50;99.90
2639;DHT22;1329;51.384;7.122;2023-03-21T09:06:29;12.50;99.90
2639;DHT22;1329;51.384;7.122;2023-03-21T09:08:58;12.50;99.90
2639;DHT22;1329;51.384;7.122;2023-03-21T09:11:30;12.50;99.90
2639;DHT22;1329;51.384;7.122;2023-03-21T09:13:59;12.50;99.90
2639;DHT22;1329;51.384;7.122;2023-03-21T09:16:30;12.50;99.90
2639;DHT22;1329;51.384;7.122;2023-03-21T09:18:58;12.50;99.90
2639;DHT22;1329;51.384;7.122;2023-03-21T09:21:28;12.60;99.90
2639;DHT22;1329;51.384;7.122;2023-03-21T09:23:56;12.60;99.90
2639;DHT22;1329;51.384;7.122;2023-03-21T09:26:25;12.60;99.90
2639;DHT22;1329;51.384;7.122;2023-03-21T09:28:55;12.70;99.90
2639;DHT22;1329;51.384;7.122;2023-03-21T09:31:27;12.70;99.90
2639;DHT22;1329;51.384;7.122;2023-03-21T09:33:55;12.70;99.90
2639;DHT22;1329;51.384;7.122;2023-03-21T09:36:24;12.70;99.90
2639;DHT22;1329;51.384;7.122;2023-03-21T09:38:52;12.80;99.90
2639;DHT22;1329;51.384;7.122;2023-03-21T09:41:39;12.80;99.90
2639;DHT22;1329;51.384;7.122;2023-03-21T09:44:31;12.80;99.90
2639;DHT22;1329;51.384;7.122;2023-03-21T09:47:15;12.90;99.90
2639;DHT22;1329;51.384;7.122;2023-03-21T09:49:52;12.90;99.90
2639;DHT22;1329;51.384;7.122;2023-03-21T09:52:29;12.90;99.90
2639;DHT22;1329;51.384;7.122;2023-03-21T09:55:08;12.90;99.90
2639;DHT22;1329;51.384;7.122;2023-03-21T09:57:45;12.90;99.90
2639;DHT22;1329;51.384;7.122;2023-03-21T10:00:23;12.90;99.90
2639;DHT22;1329;51.384;7.122;2023-03-21T10:03:00;12.90;99.90
2639;DHT22;1329;51.384;7.122;2023-03-21T10:05:34;12.90;99.90
2639;DHT22;1329;51.384;7.122;2023-03-21T10:08:15;12.90;99.90
2639;DHT22;1329;51.384;7.122;2023-03-21T10:10:55;13.00;99.90
2639;DHT22;1329;51.384;7.122;2023-03-21T10:13:32;13.00;99.90
2639;DHT22;1329;51.384;7.122;2023-03-21T10:16:11;13.00;99.90
2639;DHT22;1329;51.384;7.122;2023-03-21T10:18:55;13.00;99.90
2639;DHT22;1329;51.384;7.122;2023-03-21T10:21:37;13.10;99.90
2639;DHT22;1329;51.384;7.122;2023-03-21T10:24:11;13.10;99.90
2639;DHT22;1329;51.384;7.122;2023-03-21T10:26:43;13.20;99.90
2639;DHT22;1329;51.384;7.122;2023-03-21T10:29:12;13.30;99.90
2639;DHT22;1329;51.384;7.122;2023-03-21T10:31:44;13.30;99.90
2639;DHT22;1329;51.384;7.122;2023-03-21T10:34:16;13.30;99.90
2639;DHT22;1329;51.384;7.122;2023-03-21T10:36:46;13.40;99.90
2639;DHT22;1329;51.384;7.122;2023-03-21T10:39:26;13.40;99.90
2639;DHT22;1329;51.384;7.122;2023-03-21T10:41:56;13.40;99.90
2639;DHT22;1329;51.384;7.122;2023-03-21T10:44:28;13.40;99.90
2639;DHT22;1329;51.384;7.122;2023-03-21T10:47:11;13.50;99.90
2639;DHT22;1329;51.384;7.122;2023-03-21T10:49:47;13.50;99.90
2639;DHT22;1329;51.384;7.122;2023-03-21T10:52:18;13.50;99.90
2639;DHT22;1329;51.384;7.122;2023-03-21T10:54:47;13.60;99.90
2639;DHT22;1329;51.384;7.122;2023-03-21T10:57:19;13.60;99.90
2639;DHT22;1329;51.384;7.122;2023-03-21T10:59:51;13.60;99.90
2639;DHT22;1329;51.384;7.122;2023-03-21T11:02:25;13.50;99.90
2639;DHT22;1329;51.384;7.122;2023-03-21T11:04:56;13.70;99.90
2639;DHT22;1329;51.384;7.122;2023-03-21T11:07:29;13.70;99.90
2639;DHT22;1329;51.384;7.122;2023-03-21T11:09:59;13.70;99.90
2639;DHT22;1329;51.384;7.122;2023-03-21T11:12:33;13.70;99.90
2639;DHT22;1329;51.384;7.122;2023-03-21T11:15:24;13.80;99.90
2639;DHT22;1329;51.384;7.122;2023-03-21T11:17:56;13.90;99.90
2639;DHT22;1329;51.384;7.122;2023-03-21T11:20:28;13.90;99.90
2639;DHT22;1329;51.384;7.122;2023-03-21T11:23:02;13.90;99.90
2639;DHT22;1329;51.384;7.122;2023-03-21T11:25:35;14.00;99.90
2639;DHT22;1329;51.384;7.122;2023-03-21T11:28:14;14.00;99.90
2639;DHT22;1329;51.384;7.122;2023-03-21T11:30:51;14.10;99.90
2639;DHT22;1329;51.384;7.122;2023-03-21T11:33:22;14.20;99.90
2639;DHT22;1329;51.384;7.122;2023-03-21T11:36:02;14.30;99.90
2639;DHT22;1329;51.384;7.122;2023-03-21T11:38:35;14.30;99.90
2639;DHT22;1329;51.384;7.122;2023-03-21T11:41:05;14.40;99.90
2639;DHT22;1329;51.384;7.122;2023-03-21T11:43:38;14.50;99.90
2639;DHT22;1329;51.384;7.122;2023-03-21T11:46:07;14.50;99.90
2639;DHT22;1329;51.384;7.122;2023-03-21T11:48:39;14.60;99.90
2639;DHT22;1329;51.384;7.122;2023-03-21T11:51:18;14.60;99.90
2639;DHT22;1329;51.384;7.122;2023-03-21T11:53:55;14.70;99.90
2639;DHT22;1329;51.384;7.122;2023-03-21T11:56:28;14.70;99.90
2639;DHT22;1329;51.384;7.122;2023-03-21T11:59:24;14.70;99.90
2639;DHT22;1329;51.384;7.122;2023-03-21T12:02:06;14.80;99.90
2639;DHT22;1329;51.384;7.122;2023-03-21T12:05:10;14.90;99.90
2639;DHT22;1329;51.384;7.122;2023-03-21T12:07:55;14.90;99.90
2639;DHT22;1329;51.384;7.122;2023-03-21T12:10:34;15.00;99.90
2639;DHT22;1329;51.384;7.122;2023-03-21T12:13:21;15.10;99.90
2639;DHT22;1329;51.384;7.122;2023-03-21T12:16:02;15.10;99.90
2639;DHT22;1329;51.384;7.122;2023-03-21T12:19:02;15.20;99.90
2639;DHT22;1329;51.384;7.122;2023-03-21T12:21:47;15.30;99.90
2639;DHT22;1329;51.384;7.122;2023-03-21T12:24:25;15.20;99.90
2639;DHT22;1329;51.384;7.122;2023-03-21T12:27:00;15.20;99.90
2639;DHT22;1329;51.384;7.122;2023-03-21T12:29:44;15.10;99.90
2639;DHT22;1329;51.384;7.122;2023-03-21T12:32:24;15.10;99.90
2639;DHT22;1329;51.384;7.122;2023-03-21T12:35:22;15.00;99.90
2639;DHT22;1329;51.384;7.122;2023-03-21T12:38:13;15.00;99.90
2639;DHT22;1329;51.384;7.122;2023-03-21T12:41:06;14.90;99.90
2639;DHT22;1329;51.384;7.122;2023-03-21T12:43:46;14.80;99.90
2639;DHT22;1329;51.384;7.122;2023-03-21T12:46:20;14.70;99.90
2639;DHT22;1329;51.384;7.122;2023-03-21T12:48:54;14.70;99.90
2639;DHT22;1329;51.384;7.122;2023-03-21T12:51:29;14.60;99.90
2639;DHT22;1329;51.384;7.122;2023-03-21T12:54:04;14.60;99.90
2639;DHT22;1329;51.384;7.122;2023-03-21T12:56:39;14.50;99.90
2639;DHT22;1329;51.384;7.122;2023-03-21T12:59:21;14.40;99.90
2639;DHT22;1329;51.384;7.122;2023-03-21T13:01:55;14.30;99.90
2639;DHT22;1329;51.384;7.122;2023-03-21T13:04:44;14.20;99.90
2639;DHT22;1329;51.384;7.122;2023-03-21T13:07:19;14.20;99.90
2639;DHT22;1329;51.384;7.122;2023-03-21T13:09:47;14.10;99.90
2639;DHT22;1329;51.384;7.122;2023-03-21T13:12:29;14.00;99.90
2639;DHT22;1329;51.384;7.122;2023-03-21T13:15:20;14.00;99.90
2639;DHT22;1329;51.384;7.122;2023-03-21T13:18:15;14.00;99.90
2639;DHT22;1329;51.384;7.122;2023-03-21T13:20:50;14.00;99.90
2639;DHT22;1329;51.384;7.122;2023-03-21T13:23:21;14.00;99.90
2639;DHT22;1329;51.384;7.122;2023-03-21T13:25:51;14.00;99.90
2639;DHT22;1329;51.384;7.122;2023-03-21T13:28:27;14.00;99.90
2639;DHT22;1329;51.384;7.122;2023-03-21T13:31:16;14.10;99.90
2639;DHT22;1329;51.384;7.122;2023-03-21T13:33:45;14.10;99.90
2639;DHT22;1329;51.384;7.122;2023-03-21T13:36:17;14.10;99.90
2639;DHT22;1329;51.384;7.122;2023-03-21T13:38:52;14.10;99.90
2639;DHT22;1329;51.384;7.122;2023-03-21T13:41:31;14.20;99.90
2639;DHT22;1329;51.384;7.122;2023-03-21T13:44:18;14.20;99.90
2639;DHT22;1329;51.384;7.122;2023-03-21T13:46:54;14.20;99.90
2639;DHT22;1329;51.384;7.122;2023-03-21T13:49:31;14.20;99.90
2639;DHT22;1329;51.384;7.122;2023-03-21T13:52:01;14.20;99.90
2639;DHT22;1329;51.384;7.122;2023-03-21T13:54:52;14.30;99.90
2639;DHT22;1329;51.384;7.122;2023-03-21T13:57:34;14.30;99.90
2639;DHT22;1329;51.384;7.122;2023-03-21T14:00:19;14.30;99.90
2639;DHT22;1329;51.384;7.122;2023-03-21T14:02:54;14.40;99.90
2639;DHT22;1329;51.384;7.122;2023-03-21T14:05:25;14.40;99.90
2639;DHT22;1329;51.384;7.122;2023-03-21T14:07:57;14.40;99.90
2639;DHT22;1329;51.384;7.122;2023-03-21T14:10:33;14.50;99.90
2639;DHT22;1329;51.384;7.122;2023-03-21T14:13:02;14.50;99.90
2639;DHT22;1329;51.384;7.122;2023-03-21T14:15:41;14.40;99.90
2639;DHT22;1329;51.384;7.122;2023-03-21T14:18:14;14.60;99.90
2639;DHT22;1329;51.384;7.122;2023-03-21T14:20:43;14.60;99.90
2639;DHT22;1329;51.384;7.122;2023-03-21T14:23:18;14.60;99.90
2639;DHT22;1329;51.384;7.122;2023-03-21T14:25:46;14.60;99.90
2639;DHT22;1329;51.384;7.122;2023-03-21T14:28:17;14.70;99.90
2639;DHT22;1329;51.384;7.122;2023-03-21T14:30:53;14.60;99.90
2639;DHT22;1329;51.384;7.122;2023-03-21T14:33:26;14.70;99.90
2639;DHT22;1329;51.384;7.122;2023-03-21T14:36:02;14.70;99.90
2639;DHT22;1329;51.384;7.122;2023-03-21T14:38:38;14.70;99.90
2639;DHT22;1329;51.384;7.122;2023-03-21T14:41:20;14.70;99.90
2639;DHT22;1329;51.384;7.122;2023-03-21T14:44:31;14.70;99.90
2639;DHT22;1329;51.384;7.122;2023-03-21T14:47:07;14.70;99.90
2639;DHT22;1329;51.384;7.122;2023-03-21T14:49:43;14.70;99.90
2639;DHT22;1329;51.384;7.122;2023-03-21T14:52:16;14.70;99.90
2639;DHT22;1329;51.384;7.122;2023-03-21T14:54:52;14.80;99.90
2639;DHT22;1329;51.384;7.122;2023-03-21T14:57:21;14.80;99.90
2639;DHT22;1329;51.384;7.122;2023-03-21T14:59:52;14.80;99.90
2639;DHT22;1329;51.384;7.122;2023-03-21T15:02:26;14.80;99.90
2639;DHT22;1329;51.384;7.122;2023-03-21T15:05:06;14.80;99.90
2639;DHT22;1329;51.384;7.122;2023-03-21T15:07:36;14.70;99.90
2639;DHT22;1329;51.384;7.122;2023-03-21T15:10:06;14.80;99.90
2639;DHT22;1329;51.384;7.122;2023-03-21T15:12:49;14.70;99.90
2639;DHT22;1329;51.384;7.122;2023-03-21T15:15:23;14.70;99.90
2639;DHT22;1329;51.384;7.122;2023-03-21T15:17:59;14.70;99.90
2639;DHT22;1329;51.384;7.122;2023-03-21T15:20:33;14.70;99.90
2639;DHT22;1329;51.384;7.122;2023-03-21T15:23:03;14.60;99.90
2639;DHT22;1329;51.384;7.122;2023-03-21T15:25:37;14.60;99.90
2639;DHT22;1329;51.384;7.122;2023-03-21T15:28:08;14.70;99.90
2639;DHT22;1329;51.384;7.122;2023-03-21T15:30:47;14.70;99.90
2639;DHT22;1329;51.384;7.122;2023-03-21T15:33:19;14.80;99.90
2639;DHT22;1329;51.384;7.122;2023-03-21T15:35:57;14.80;99.90
2639;DHT22;1329;51.384;7.122;2023-03-21T15:38:38;14.90;99.90
2639;DHT22;1329;51.384;7.122;2023-03-21T15:41:15;14.80;99.90
2639;DHT22;1329;51.384;7.122;2023-03-21T15:43:59;15.00;99.90
2639;DHT22;1329;51.384;7.122;2023-03-21T15:46:38;15.10;99.90
2639;DHT22;1329;51.384;7.122;2023-03-21T15:49:19;15.10;99.90
2639;DHT22;1329;51.384;7.122;2023-03-21T15:51:52;15.20;99.90
2639;DHT22;1329;51.384;7.122;2023-03-21T15:54:27;15.20;99.90
2639;DHT22;1329;51.384;7.122;2023-03-21T15:57:01;15.20;99.90
2639;DHT22;1329;51.384;7.122;2023-03-21T15:59:37;15.10;99.90
2639;DHT22;1329;51.384;7.122;2023-03-21T16:02:16;15.10;99.90
2639;DHT22;1329;51.384;7.122;2023-03-21T16:05:16;15.10;99.90
2639;DHT22;1329;51.384;7.122;2023-03-21T16:07:48;15.20;98.10
2639;DHT22;1329;51.384;7.122;2023-03-21T16:10:25;15.30;99.90
2639;DHT22;1329;51.384;7.122;2023-03-21T16:12:54;15.30;99.90
2639;DHT22;1329;51.384;7.122;2023-03-21T16:15:24;15.40;99.90
2639;DHT22;1329;51.384;7.122;2023-03-21T16:17:54;15.40;99.90
2639;DHT22;1329;51.384;7.122;2023-03-21T16:20:26;15.50;99.90
2639;DHT22;1329;51.384;7.122;2023-03-21T16:22:59;15.50;99.90
2639;DHT22;1329;51.384;7.122;2023-03-21T16:25:28;15.50;99.90
2639;DHT22;1329;51.384;7.122;2023-03-21T16:27:58;15.50;99.90
2639;DHT22;1329;51.384;7.122;2023-03-21T16:30:28;15.50;99.90
2639;DHT22;1329;51.384;7.122;2023-03-21T16:32:57;15.40;99.90
2639;DHT22;1329;51.384;7.122;2023-03-21T16:35:27;15.40;99.90
2639;DHT22;1329;51.384;7.122;2023-03-21T16:37:55;15.30;99.90
2639;DHT22;1329;51.384;7.122;2023-03-21T16:40:29;15.20;99.90
2639;DHT22;1329;51.384;7.122;2023-03-21T16:43:04;15.10;98.60
2639;DHT22;1329;51.384;7.122;2023-03-21T16:45:32;15.10;99.90
2639;DHT22;1329;51.384;7.122;2023-03-21T16:48:01;15.00;99.90
2639;DHT22;1329;51.384;7.122;2023-03-21T16:50:38;15.00;99.90
2639;DHT22;1329;51.384;7.122;2023-03-21T16:53:07;14.90;99.90
2639;DHT22;1329;51.384;7.122;2023-03-21T16:55:41;14.90;99.90
2639;DHT22;1329;51.384;7.122;2023-03-21T16:58:15;14.90;99.90
2639;DHT22;1329;51.384;7.122;2023-03-21T17:00:43;14.80;99.90
2639;DHT22;1329;51.384;7.122;2023-03-21T17:03:14;14.80;99.90
2639;DHT22;1329;51.384;7.122;2023-03-21T17:05:45;14.80;99.90
2639;DHT22;1329;51.384;7.122;2023-03-21T17:08:18;14.80;99.90
2639;DHT22;1329;51.384;7.122;2023-03-21T17:10:46;14.70;99.90
2639;DHT22;1329;51.384;7.122;2023-03-21T17:13:17;14.70;99.90
2639;DHT22;1329;51.384;7.122;2023-03-21T17:15:45;14.70;99.90
2639;DHT22;1329;51.384;7.122;2023-03-21T17:18:13;14.60;99.90
2639;DHT22;1329;51.384;7.122;2023-03-21T17:20:45;14.60;99.90
2639;DHT22;1329;51.384;7.122;2023-03-21T17:23:13;14.50;99.90
2639;DHT22;1329;51.384;7.122;2023-03-21T17:25:40;14.50;99.90
2639;DHT22;1329;51.384;7.122;2023-03-21T17:28:08;14.50;99.90